Time;durP1;ratioP1;P1;durP2;ratioP2;P2;SDS_P1;SDS_P2;PMS_P1;PMS_P2;Temp;Humidity;BMP_temperature;BMP_pressure;BME280_temperature;BME280_humidity;BME280_pressure;Samples;Min_cycle;Max_cycle;Signal;HPM_P1;HPM_P2
2021/01/10 00:01:03;;;;;;;91.10;44.20;;;;;;;;;;771413;178;919111;-71
2021/01/10 00:03:27;;;;;;;89.80;45.13;;;;;;;;;;772599;179;919311;-71
2021/01/10 00:05:53;;;;;;;102.90;51.00;;;;;;;;;;781453;178;794430;-71
2021/01/10 00:08:19;;;;;;;70.17;36.83;;;;;;;;;;768473;179;918423;-72
2021/01/10 00:10:44;;;;;;;65.50;33.33;;;;;;;;;;775423;179;919219;-71
2021/01/10 00:13:10;;;;;;;70.57;35.27;;;;;;;;;;781752;178;923006;-71
2021/01/10 00:15:36;;;;;;;70.40;36.23;;;;;;;;;;772296;176;921617;-71
2021/01/10 00:18:05;;;;;;;69.37;36.60;;;;;;;;;;773799;179;932660;-71
2021/01/10 00:20:28;;;;;;;72.80;36.53;;;;;;;;;;777867;178;919037;-69
2021/01/10 00:22:54;;;;;;;63.67;32.23;;;;;;;;;;775685;180;918772;-71
2021/01/10 00:25:19;;;;;;;65.60;32.80;;;;;;;;;;777955;178;918526;-72
2021/01/10 00:27:45;;;;;;;72.60;35.38;;;;;;;;;;773818;179;919247;-71
2021/01/10 00:30:12;;;;;;;73.73;35.40;;;;;;;;;;780624;178;919280;-71
2021/01/10 00:32:37;;;;;;;72.80;36.90;;;;;;;;;;778865;179;919135;-71
2021/01/10 00:35:03;;;;;;;65.23;33.23;;;;;;;;;;770507;178;1341216;-70
2021/01/10 00:37:29;;;;;;;75.17;36.57;;;;;;;;;;780788;179;919434;-71
2021/01/10 00:39:55;;;;;;;74.77;37.17;;;;;;;;;;775570;177;946015;-71
2021/01/10 00:42:21;;;;;;;75.43;38.70;;;;;;;;;;776429;178;1049022;-71
2021/01/10 00:44:47;;;;;;;82.00;41.30;;;;;;;;;;779798;178;918458;-71
2021/01/10 00:47:13;;;;;;;90.30;42.90;;;;;;;;;;774382;178;919224;-70
2021/01/10 00:49:38;;;;;;;80.80;40.90;;;;;;;;;;776876;178;918711;-71
2021/01/10 00:52:04;;;;;;;82.70;41.87;;;;;;;;;;780181;177;921245;-72
2021/01/10 00:54:30;;;;;;;90.17;41.60;;;;;;;;;;773093;179;913857;-71
2021/01/10 00:56:57;;;;;;;83.93;44.17;;;;;;;;;;778707;178;918899;-72
2021/01/10 00:59:22;;;;;;;87.00;43.03;;;;;;;;;;772654;178;918850;-71
2021/01/10 01:01:48;;;;;;;71.83;41.60;;;;;;;;;;781403;179;919237;-71
2021/01/10 01:04:14;;;;;;;86.10;39.60;;;;;;;;;;778786;178;918826;-72
2021/01/10 01:06:40;;;;;;;80.45;39.42;;;;;;;;;;774924;178;918548;-71
2021/01/10 01:09:06;;;;;;;79.63;42.57;;;;;;;;;;782357;178;918803;-71
2021/01/10 01:11:32;;;;;;;76.57;41.17;;;;;;;;;;776170;178;915144;-71
2021/01/10 01:13:58;;;;;;;71.73;36.80;;;;;;;;;;778188;178;918488;-71
2021/01/10 01:16:24;;;;;;;75.47;35.97;;;;;;;;;;774122;179;917624;-71
2021/01/10 01:18:50;;;;;;;58.00;32.40;;;;;;;;;;770353;181;919385;-72
2021/01/10 01:21:17;;;;;;;69.10;36.87;;;;;;;;;;773232;177;939168;-72
2021/01/10 01:23:43;;;;;;;82.20;40.47;;;;;;;;;;776541;178;918866;-71
2021/01/10 01:26:14;;;;;;;66.83;36.73;;;;;;;;;;780989;179;920814;-71
2021/01/10 01:28:43;;;;;;;65.13;37.30;;;;;;;;;;777415;179;918012;-71
2021/01/10 01:31:06;;;;;;;60.87;32.30;;;;;;;;;;771842;179;917159;-71
2021/01/10 01:33:32;;;;;;;72.50;35.83;;;;;;;;;;775848;179;918868;-69
2021/01/10 01:35:58;;;;;;;56.80;31.20;;;;;;;;;;768634;180;918699;-71
2021/01/10 01:38:24;;;;;;;63.17;31.33;;;;;;;;;;773263;177;919500;-71
2021/01/10 01:40:53;;;;;;;64.57;36.03;;;;;;;;;;776663;178;918149;-71
2021/01/10 01:43:19;;;;;;;63.07;32.60;;;;;;;;;;774270;180;919456;-70
2021/01/10 01:45:45;;;;;;;52.47;29.27;;;;;;;;;;774103;179;919413;-72
2021/01/10 01:48:11;;;;;;;58.73;29.77;;;;;;;;;;771736;179;919319;-72
2021/01/10 01:50:36;;;;;;;59.27;30.30;;;;;;;;;;786870;178;918178;-71
2021/01/10 01:53:02;;;;;;;61.30;31.43;;;;;;;;;;770924;179;918871;-71
2021/01/10 01:55:28;;;;;;;59.80;30.80;;;;;;;;;;778445;178;919216;-71
2021/01/10 01:57:54;;;;;;;63.30;30.73;;;;;;;;;;774693;178;1071953;-71
2021/01/10 02:00:20;;;;;;;55.80;32.10;;;;;;;;;;782119;179;918371;-71
2021/01/10 02:02:46;;;;;;;61.83;30.63;;;;;;;;;;772740;177;919046;-72
2021/01/10 02:05:12;;;;;;;59.78;31.02;;;;;;;;;;775508;178;918806;-72
2021/01/10 02:07:42;;;;;;;51.95;28.85;;;;;;;;;;777045;178;917062;-72
2021/01/10 02:10:09;;;;;;;59.83;30.27;;;;;;;;;;772943;178;918724;-73
2021/01/10 02:12:36;;;;;;;57.20;29.03;;;;;;;;;;771626;178;919270;-72
2021/01/10 02:15:04;;;;;;;53.10;27.90;;;;;;;;;;781975;178;922162;-73
2021/01/10 02:17:30;;;;;;;57.10;29.60;;;;;;;;;;772263;180;918652;-72
2021/01/10 02:19:58;;;;;;;56.03;29.40;;;;;;;;;;775018;178;918721;-73
2021/01/10 02:22:27;;;;;;;66.00;35.00;;;;;;;;;;771935;178;919051;-72
2021/01/10 02:24:53;;;;;;;58.60;30.00;;;;;;;;;;776786;178;918862;-72
2021/01/10 02:27:19;;;;;;;60.77;31.37;;;;;;;;;;771049;179;919385;-73
2021/01/10 02:29:45;;;;;;;56.20;30.60;;;;;;;;;;771956;179;979567;-73
2021/01/10 02:32:11;;;;;;;57.27;32.33;;;;;;;;;;775503;179;918550;-71
2021/01/10 02:34:37;;;;;;;50.33;28.90;;;;;;;;;;775125;180;916239;-72
2021/01/10 02:37:04;;;;;;;57.80;30.17;;;;;;;;;;775546;178;919093;-72
2021/01/10 02:39:33;;;;;;;60.27;32.23;;;;;;;;;;764937;180;919345;-72
2021/01/10 02:42:00;;;;;;;63.23;31.07;;;;;;;;;;781524;179;919411;-71
2021/01/10 02:44:40;;;;;;;51.07;28.40;;;;;;;;;;773405;178;917758;-71
2021/01/10 02:47:07;;;;;;;46.60;26.87;;;;;;;;;;776589;178;917780;-71
2021/01/10 02:49:32;;;;;;;52.00;27.90;;;;;;;;;;769683;178;916672;-72
2021/01/10 02:51:58;;;;;;;53.15;28.50;;;;;;;;;;785603;178;918188;-71
2021/01/10 02:54:24;;;;;;;54.40;29.10;;;;;;;;;;767090;178;915763;-72
2021/01/10 02:56:50;;;;;;;50.40;27.37;;;;;;;;;;773399;178;919099;-72
2021/01/10 02:59:16;;;;;;;47.03;27.42;;;;;;;;;;772017;178;915881;-72
2021/01/10 03:01:42;;;;;;;47.63;26.37;;;;;;;;;;779549;179;915668;-72
2021/01/10 03:04:08;;;;;;;59.03;30.00;;;;;;;;;;775372;176;914433;-71
2021/01/10 03:06:34;;;;;;;53.30;26.97;;;;;;;;;;778744;176;900603;-71
2021/01/10 03:09:00;;;;;;;54.93;27.43;;;;;;;;;;784267;178;919073;-72
2021/01/10 03:11:26;;;;;;;60.73;29.37;;;;;;;;;;768540;178;1179456;-72
2021/01/10 03:13:52;;;;;;;48.90;27.63;;;;;;;;;;779220;179;918522;-72
2021/01/10 03:16:17;;;;;;;55.92;31.02;;;;;;;;;;780760;178;918710;-72
2021/01/10 03:18:43;;;;;;;60.30;30.93;;;;;;;;;;779393;178;918489;-71
2021/01/10 03:21:09;;;;;;;53.33;30.23;;;;;;;;;;776354;178;920008;-71
2021/01/10 03:23:35;;;;;;;58.13;30.70;;;;;;;;;;780440;178;926114;-70
2021/01/10 03:26:01;;;;;;;59.50;31.90;;;;;;;;;;770914;179;919557;-71
2021/01/10 03:28:27;;;;;;;62.83;33.75;;;;;;;;;;779741;178;918343;-71
2021/01/10 03:30:53;;;;;;;63.60;33.93;;;;;;;;;;774529;178;918992;-72
2021/01/10 03:33:19;;;;;;;57.30;33.97;;;;;;;;;;782182;178;918699;-71
2021/01/10 03:35:45;;;;;;;63.80;31.83;;;;;;;;;;777376;178;1010603;-70
2021/01/10 03:38:11;;;;;;;71.85;30.25;;;;;;;;;;766266;179;918928;-71
2021/01/10 03:40:37;;;;;;;59.20;29.53;;;;;;;;;;779466;179;919347;-72
2021/01/10 03:43:02;;;;;;;57.17;30.70;;;;;;;;;;777517;179;919292;-72
2021/01/10 03:45:28;;;;;;;54.97;31.70;;;;;;;;;;771349;178;917681;-72
2021/01/10 03:47:54;;;;;;;61.70;31.80;;;;;;;;;;781127;177;913055;-71
2021/01/10 03:50:20;;;;;;;68.17;34.17;;;;;;;;;;779277;178;920495;-71
2021/01/10 03:52:46;;;;;;;58.77;31.67;;;;;;;;;;772669;178;916110;-72
2021/01/10 03:55:12;;;;;;;60.80;31.70;;;;;;;;;;772625;178;915608;-71
2021/01/10 03:57:38;;;;;;;59.40;30.83;;;;;;;;;;771658;179;914698;-71
2021/01/10 04:00:05;;;;;;;65.80;30.53;;;;;;;;;;775072;178;913370;-71
2021/01/10 04:02:30;;;;;;;57.20;31.37;;;;;;;;;;769992;179;918982;-71
2021/01/10 04:04:56;;;;;;;62.17;30.20;;;;;;;;;;779144;178;917892;-72
2021/01/10 04:07:22;;;;;;;60.80;32.17;;;;;;;;;;774742;179;916093;-71
2021/01/10 04:09:48;;;;;;;58.20;31.17;;;;;;;;;;778297;177;917422;-71
2021/01/10 04:12:14;;;;;;;56.53;30.67;;;;;;;;;;781008;177;918297;-71
2021/01/10 04:14:40;;;;;;;62.93;32.17;;;;;;;;;;777435;178;919736;-71
2021/01/10 04:17:06;;;;;;;57.60;29.67;;;;;;;;;;777221;178;917129;-72
2021/01/10 04:19:32;;;;;;;59.15;31.80;;;;;;;;;;774962;177;918036;-70
2021/01/10 04:21:58;;;;;;;54.00;29.53;;;;;;;;;;768143;181;918485;-71
2021/01/10 04:24:24;;;;;;;54.03;29.07;;;;;;;;;;769078;177;918810;-72
2021/01/10 04:26:50;;;;;;;58.70;30.90;;;;;;;;;;775740;178;918223;-71
2021/01/10 04:29:18;;;;;;;66.53;31.70;;;;;;;;;;779934;178;919296;-71
2021/01/10 04:31:42;;;;;;;73.33;32.10;;;;;;;;;;781158;178;918892;-71
2021/01/10 04:34:08;;;;;;;70.43;33.85;;;;;;;;;;775174;178;918760;-69
2021/01/10 04:36:33;;;;;;;63.67;32.17;;;;;;;;;;776772;178;919964;-71
2021/01/10 04:38:59;;;;;;;71.87;31.73;;;;;;;;;;766787;178;2338911;-72
2021/01/10 04:41:25;;;;;;;66.47;31.13;;;;;;;;;;778623;178;922179;-71
2021/01/10 04:43:51;;;;;;;58.20;30.73;;;;;;;;;;777285;178;916475;-70
2021/01/10 04:46:17;;;;;;;67.73;33.40;;;;;;;;;;778036;178;927798;-71
2021/01/10 04:48:43;;;;;;;66.23;33.20;;;;;;;;;;775850;177;915305;-71
2021/01/10 04:51:09;;;;;;;63.00;32.63;;;;;;;;;;775907;178;914410;-70
2021/01/10 04:53:34;;;;;;;75.47;35.40;;;;;;;;;;776916;179;911334;-71
2021/01/10 04:56:00;;;;;;;65.95;35.10;;;;;;;;;;768648;180;919297;-71
2021/01/10 04:58:28;;;;;;;73.80;36.10;;;;;;;;;;773381;178;919146;-71
2021/01/10 05:00:53;;;;;;;70.07;35.10;;;;;;;;;;782977;178;918855;-72
2021/01/10 05:03:19;;;;;;;70.33;36.50;;;;;;;;;;776185;179;938133;-72
2021/01/10 05:05:45;;;;;;;71.57;34.27;;;;;;;;;;768867;178;1872971;-71
2021/01/10 05:08:11;;;;;;;68.33;31.77;;;;;;;;;;781961;179;853120;-71
2021/01/10 05:10:37;;;;;;;62.80;33.97;;;;;;;;;;775447;178;945735;-69
2021/01/10 05:13:03;;;;;;;71.77;36.03;;;;;;;;;;779558;179;915968;-71
2021/01/10 05:15:29;;;;;;;74.23;32.10;;;;;;;;;;773774;179;918773;-71
2021/01/10 05:17:54;;;;;;;67.73;32.23;;;;;;;;;;772860;181;919143;-71
2021/01/10 05:20:20;;;;;;;57.07;29.30;;;;;;;;;;770231;178;919187;-72
2021/01/10 05:22:46;;;;;;;73.70;36.57;;;;;;;;;;774475;178;940792;-71
2021/01/10 05:25:12;;;;;;;70.40;34.77;;;;;;;;;;773710;177;2594637;-71
2021/01/10 05:27:39;;;;;;;90.77;39.57;;;;;;;;;;780964;178;919218;-71
2021/01/10 05:30:05;;;;;;;78.63;37.83;;;;;;;;;;778096;178;919360;-71
2021/01/10 05:32:31;;;;;;;92.97;36.40;;;;;;;;;;778280;179;918903;-71
2021/01/10 05:34:58;;;;;;;68.23;32.30;;;;;;;;;;776624;178;919110;-70
2021/01/10 05:37:24;;;;;;;70.10;35.30;;;;;;;;;;771953;178;918317;-71
2021/01/10 05:39:49;;;;;;;64.83;33.17;;;;;;;;;;775681;178;919549;-70
2021/01/10 05:42:15;;;;;;;89.05;36.35;;;;;;;;;;774880;178;918212;-70
2021/01/10 05:44:50;;;;;;;71.80;32.70;;;;;;;;;;777291;179;918192;-73
2021/01/10 05:47:15;;;;;;;61.53;34.10;;;;;;;;;;772993;178;918257;-71
2021/01/10 05:49:48;;;;;;;69.07;32.20;;;;;;;;;;780098;179;918981;-70
2021/01/10 05:52:14;;;;;;;67.20;32.60;;;;;;;;;;773492;180;919082;-71
2021/01/10 05:54:39;;;;;;;68.27;33.20;;;;;;;;;;775096;176;919005;-70
2021/01/10 05:57:06;;;;;;;78.67;34.87;;;;;;;;;;774875;178;917163;-71
2021/01/10 05:59:32;;;;;;;71.57;35.67;;;;;;;;;;783104;178;917855;-71
2021/01/10 06:01:58;;;;;;;68.93;34.43;;;;;;;;;;777042;178;916256;-71
2021/01/10 06:04:24;;;;;;;76.40;32.70;;;;;;;;;;774409;179;918635;-71
2021/01/10 06:06:50;;;;;;;66.78;32.28;;;;;;;;;;777077;179;919295;-70
2021/01/10 06:09:16;;;;;;;76.50;34.17;;;;;;;;;;761342;182;919645;-70
2021/01/10 06:11:42;;;;;;;74.18;34.78;;;;;;;;;;754226;183;948273;-70
2021/01/10 06:14:09;;;;;;;68.13;32.80;;;;;;;;;;741346;187;919599;-70
2021/01/10 06:16:34;;;;;;;74.13;35.50;;;;;;;;;;780353;177;934207;-72
2021/01/10 06:19:00;;;;;;;65.77;34.90;;;;;;;;;;777245;178;917238;-70
2021/01/10 06:21:26;;;;;;;68.93;32.35;;;;;;;;;;775453;179;919186;-71
2021/01/10 06:23:51;;;;;;;66.20;31.60;;;;;;;;;;778819;178;918938;-71
2021/01/10 06:26:17;;;;;;;66.82;31.52;;;;;;;;;;773573;178;917966;-72
2021/01/10 06:28:45;;;;;;;58.37;30.50;;;;;;;;;;772891;178;916187;-72
2021/01/10 06:31:11;;;;;;;58.30;31.00;;;;;;;;;;780540;179;893240;-71
2021/01/10 06:33:37;;;;;;;66.37;30.77;;;;;;;;;;763037;180;927653;-71
2021/01/10 06:36:05;;;;;;;61.03;30.90;;;;;;;;;;778137;177;918760;-70
2021/01/10 06:38:32;;;;;;;74.10;34.67;;;;;;;;;;779243;178;918850;-70
2021/01/10 06:41:03;;;;;;;67.03;32.10;;;;;;;;;;782186;178;918988;-72
2021/01/10 06:43:29;;;;;;;61.87;29.83;;;;;;;;;;773461;177;918990;-71
2021/01/10 06:45:55;;;;;;;60.33;27.73;;;;;;;;;;774969;178;919209;-70
2021/01/10 06:48:21;;;;;;;51.10;25.87;;;;;;;;;;777778;177;919060;-72
2021/01/10 06:50:47;;;;;;;71.80;33.50;;;;;;;;;;777177;178;919765;-71
2021/01/10 06:53:13;;;;;;;75.33;33.30;;;;;;;;;;769703;178;1936888;-71
2021/01/10 06:55:39;;;;;;;74.57;36.53;;;;;;;;;;775764;178;918903;-70
2021/01/10 06:58:05;;;;;;;70.87;33.73;;;;;;;;;;779667;178;917046;-71
2021/01/10 07:00:31;;;;;;;88.33;35.27;;;;;;;;;;774668;178;918815;-71
2021/01/10 07:02:58;;;;;;;62.57;31.47;;;;;;;;;;775382;179;919273;-71
2021/01/10 07:05:24;;;;;;;71.90;34.77;;;;;;;;;;779508;178;917811;-70
2021/01/10 07:07:50;;;;;;;78.50;33.67;;;;;;;;;;772580;178;919142;-71
2021/01/10 07:10:16;;;;;;;77.07;35.50;;;;;;;;;;774904;178;918772;-70
2021/01/10 07:12:42;;;;;;;82.57;37.17;;;;;;;;;;775516;179;919155;-71
2021/01/10 07:15:12;;;;;;;83.00;36.33;;;;;;;;;;773610;181;919079;-71
2021/01/10 07:17:37;;;;;;;71.70;34.73;;;;;;;;;;764355;180;919854;-71
2021/01/10 07:20:03;;;;;;;76.00;35.20;;;;;;;;;;762202;180;919062;-71
2021/01/10 07:22:30;;;;;;;70.80;34.10;;;;;;;;;;775560;180;919892;-70
2021/01/10 07:24:55;;;;;;;74.07;33.33;;;;;;;;;;766777;180;920256;-71
2021/01/10 07:27:26;;;;;;;81.37;34.87;;;;;;;;;;764343;182;917247;-71
2021/01/10 07:29:53;;;;;;;75.47;38.63;;;;;;;;;;761870;180;918105;-71
2021/01/10 07:32:20;;;;;;;91.17;36.10;;;;;;;;;;773580;180;904127;-70
2021/01/10 07:35:00;;;;;;;76.80;34.27;;;;;;;;;;765358;180;922765;-71
2021/01/10 07:37:28;;;;;;;75.80;36.00;;;;;;;;;;770670;180;917239;-70
2021/01/10 07:39:54;;;;;;;91.50;35.17;;;;;;;;;;768177;180;642251;-70
2021/01/10 07:42:20;;;;;;;79.80;35.57;;;;;;;;;;772139;180;928763;-70
2021/01/10 07:44:52;;;;;;;90.13;36.70;;;;;;;;;;768537;180;919056;-71
2021/01/10 07:47:18;;;;;;;95.00;38.50;;;;;;;;;;770902;180;919017;-72
2021/01/10 07:49:48;;;;;;;87.47;35.97;;;;;;;;;;768250;180;918104;-71
2021/01/10 07:52:14;;;;;;;78.13;36.90;;;;;;;;;;773121;180;918885;-72
2021/01/10 07:54:46;;;;;;;92.93;35.97;;;;;;;;;;767183;180;942939;-71
2021/01/10 07:57:28;;;;;;;82.70;39.10;;;;;;;;;;765820;180;918632;-71
2021/01/10 08:00:11;;;;;;;95.27;41.57;;;;;;;;;;769453;179;1065442;-70
2021/01/10 08:02:42;;;;;;;93.67;36.47;;;;;;;;;;766183;180;1084473;-71
2021/01/10 08:05:09;;;;;;;77.87;36.07;;;;;;;;;;767113;180;918543;-71
2021/01/10 08:07:35;;;;;;;76.67;35.40;;;;;;;;;;769901;180;918038;-71
2021/01/10 08:10:01;;;;;;;88.40;36.10;;;;;;;;;;772029;180;919048;-72
2021/01/10 08:12:28;;;;;;;96.95;39.08;;;;;;;;;;760861;180;919172;-71
2021/01/10 08:14:55;;;;;;;89.68;39.38;;;;;;;;;;773705;180;919309;-71
2021/01/10 08:17:20;;;;;;;91.83;36.97;;;;;;;;;;769333;180;918119;-72
2021/01/10 08:19:46;;;;;;;80.83;33.23;;;;;;;;;;763868;181;919120;-71
2021/01/10 08:22:15;;;;;;;74.25;33.90;;;;;;;;;;764547;181;1466782;-70
2021/01/10 08:24:38;;;;;;;90.70;39.00;;;;;;;;;;771439;180;918891;-72
2021/01/10 08:27:04;;;;;;;81.53;36.00;;;;;;;;;;769153;180;918639;-72
2021/01/10 08:29:30;;;;;;;89.83;35.23;;;;;;;;;;772765;180;919198;-73
2021/01/10 08:31:56;;;;;;;87.83;37.70;;;;;;;;;;767161;182;918146;-75
2021/01/10 08:34:22;;;;;;;74.07;37.43;;;;;;;;;;773090;180;919053;-75
2021/01/10 08:36:48;;;;;;;101.07;38.60;;;;;;;;;;771886;180;648344;-76
2021/01/10 08:39:14;;;;;;;90.33;36.90;;;;;;;;;;770875;180;914924;-76
2021/01/10 08:41:42;;;;;;;75.90;40.25;;;;;;;;;;759271;179;918647;-76
2021/01/10 08:44:06;;;;;;;83.63;35.27;;;;;;;;;;763249;180;918546;-74
2021/01/10 08:46:32;;;;;;;103.40;40.77;;;;;;;;;;768194;180;932662;-74
2021/01/10 08:48:58;;;;;;;85.67;37.17;;;;;;;;;;769791;180;919239;-71
2021/01/10 08:51:29;;;;;;;77.60;34.23;;;;;;;;;;772305;180;919604;-72
2021/01/10 08:53:55;;;;;;;62.63;31.40;;;;;;;;;;768997;180;918066;-71
2021/01/10 08:56:21;;;;;;;55.17;29.20;;;;;;;;;;774863;180;918221;-70
2021/01/10 08:58:47;;;;;;;55.90;28.53;;;;;;;;;;768301;178;919499;-70
2021/01/10 09:01:19;;;;;;;62.57;31.23;;;;;;;;;;770581;180;919200;-68
2021/01/10 09:03:44;;;;;;;66.70;31.57;;;;;;;;;;768672;180;918512;-70
2021/01/10 09:06:10;;;;;;;54.10;27.37;;;;;;;;;;774010;179;918677;-69
2021/01/10 09:08:36;;;;;;;51.03;27.77;;;;;;;;;;767133;180;947477;-69
2021/01/10 09:11:04;;;;;;;44.20;25.30;;;;;;;;;;768680;180;919102;-67
2021/01/10 09:13:30;;;;;;;54.43;27.43;;;;;;;;;;766550;180;917521;-69
2021/01/10 09:15:55;;;;;;;45.60;24.43;;;;;;;;;;770870;180;918689;-68
2021/01/10 09:18:23;;;;;;;62.03;30.23;;;;;;;;;;769832;180;918999;-68
2021/01/10 09:20:49;;;;;;;57.30;30.50;;;;;;;;;;761101;181;935861;-67
2021/01/10 09:23:15;;;;;;;57.27;30.97;;;;;;;;;;776122;180;920383;-67
2021/01/10 09:25:41;;;;;;;58.90;28.83;;;;;;;;;;766322;180;920911;-67
2021/01/10 09:28:07;;;;;;;61.27;31.33;;;;;;;;;;771376;180;941924;-68
2021/01/10 09:30:33;;;;;;;70.57;35.30;;;;;;;;;;773995;180;954773;-67
2021/01/10 09:32:59;;;;;;;59.00;31.03;;;;;;;;;;764616;180;915078;-67
2021/01/10 09:35:25;;;;;;;57.90;32.30;;;;;;;;;;764354;180;1013480;-68
2021/01/10 09:37:51;;;;;;;62.47;32.10;;;;;;;;;;773993;180;917918;-67
2021/01/10 09:40:18;;;;;;;62.50;32.17;;;;;;;;;;766533;180;1021212;-67
2021/01/10 09:42:44;;;;;;;62.33;31.00;;;;;;;;;;770181;180;1021798;-67
2021/01/10 09:45:10;;;;;;;56.50;30.40;;;;;;;;;;767505;180;949704;-69
2021/01/10 09:47:36;;;;;;;54.43;28.03;;;;;;;;;;774694;180;926063;-67
2021/01/10 09:50:02;;;;;;;49.40;26.70;;;;;;;;;;774801;180;919651;-68
2021/01/10 09:52:27;;;;;;;47.63;25.67;;;;;;;;;;765954;180;919366;-68
2021/01/10 09:54:57;;;;;;;50.47;25.97;;;;;;;;;;771167;180;918311;-68
2021/01/10 09:57:22;;;;;;;46.67;25.40;;;;;;;;;;769873;180;918383;-69
2021/01/10 10:00:05;;;;;;;47.27;25.47;;;;;;;;;;768122;181;919481;-68
2021/01/10 10:02:34;;;;;;;36.93;20.40;;;;;;;;;;761917;180;1022064;-69
2021/01/10 10:05:06;;;;;;;43.30;20.13;;;;;;;;;;763932;180;921024;-69
2021/01/10 10:07:32;;;;;;;36.80;20.17;;;;;;;;;;767313;180;918730;-69
2021/01/10 10:09:58;;;;;;;39.33;20.33;;;;;;;;;;766719;179;1327580;-69
2021/01/10 10:12:23;;;;;;;36.50;19.03;;;;;;;;;;769264;180;918891;-69
2021/01/10 10:14:49;;;;;;;40.07;20.30;;;;;;;;;;777605;180;919289;-70
2021/01/10 10:17:15;;;;;;;41.63;20.23;;;;;;;;;;762883;180;1699424;-70
2021/01/10 10:19:41;;;;;;;35.90;19.40;;;;;;;;;;768777;180;942220;-71
2021/01/10 10:22:13;;;;;;;40.93;19.80;;;;;;;;;;768133;180;919148;-70
2021/01/10 10:24:38;;;;;;;34.03;19.97;;;;;;;;;;780848;179;915229;-69
2021/01/10 10:27:04;;;;;;;37.90;20.97;;;;;;;;;;766856;179;928572;-69
2021/01/10 10:29:30;;;;;;;43.27;20.73;;;;;;;;;;768211;180;1031986;-71
2021/01/10 10:31:56;;;;;;;35.47;21.60;;;;;;;;;;773322;180;919366;-69
2021/01/10 10:34:22;;;;;;;37.97;19.83;;;;;;;;;;767399;180;918802;-71
2021/01/10 10:36:48;;;;;;;40.45;20.35;;;;;;;;;;768569;180;1073958;-71
2021/01/10 10:39:14;;;;;;;37.50;21.53;;;;;;;;;;769331;180;919071;-70
2021/01/10 10:41:40;;;;;;;50.60;22.30;;;;;;;;;;772325;181;919036;-70
2021/01/10 10:44:06;;;;;;;41.20;21.13;;;;;;;;;;763199;180;923356;-70
2021/01/10 10:46:32;;;;;;;39.28;21.10;;;;;;;;;;767371;179;966074;-70
2021/01/10 10:48:57;;;;;;;41.40;24.20;;;;;;;;;;774003;180;918644;-71
2021/01/10 10:51:23;;;;;;;41.10;22.03;;;;;;;;;;766751;180;918844;-71
2021/01/10 10:53:49;;;;;;;41.83;22.03;;;;;;;;;;765772;181;919231;-71
2021/01/10 10:56:15;;;;;;;47.10;22.20;;;;;;;;;;774527;180;917777;-71
2021/01/10 10:58:41;;;;;;;41.40;21.53;;;;;;;;;;769085;180;1061636;-69
2021/01/10 11:01:07;;;;;;;44.78;25.77;;;;;;;;;;774891;178;922820;-70
2021/01/10 11:03:33;;;;;;;42.33;22.17;;;;;;;;;;780331;179;919428;-70
2021/01/10 11:05:58;;;;;;;43.17;23.70;;;;;;;;;;775704;179;919111;-69
2021/01/10 11:08:24;;;;;;;49.47;25.97;;;;;;;;;;770657;178;925217;-69
2021/01/10 11:10:50;;;;;;;42.00;23.43;;;;;;;;;;777336;178;916219;-70
2021/01/10 11:13:16;;;;;;;42.93;23.03;;;;;;;;;;771894;179;937769;-70
2021/01/10 11:15:42;;;;;;;47.53;22.93;;;;;;;;;;772707;176;918564;-70
2021/01/10 11:18:08;;;;;;;43.70;24.27;;;;;;;;;;771106;179;1080143;-71
2021/01/10 11:20:35;;;;;;;42.40;24.00;;;;;;;;;;783957;178;918305;-69
2021/01/10 11:23:01;;;;;;;48.73;24.57;;;;;;;;;;783058;177;918824;-70
2021/01/10 11:25:26;;;;;;;38.00;22.10;;;;;;;;;;774807;178;919415;-70
2021/01/10 11:27:52;;;;;;;44.60;23.70;;;;;;;;;;780072;179;919422;-70
2021/01/10 11:30:18;;;;;;;41.30;21.33;;;;;;;;;;777448;178;917760;-69
2021/01/10 11:32:43;;;;;;;40.17;21.30;;;;;;;;;;774962;178;921958;-69
2021/01/10 11:35:09;;;;;;;43.00;21.13;;;;;;;;;;771159;179;938191;-68
2021/01/10 11:37:36;;;;;;;37.83;18.95;;;;;;;;;;774527;180;918679;-68
2021/01/10 11:40:02;;;;;;;33.77;20.40;;;;;;;;;;771572;178;918464;-68
2021/01/10 11:42:28;;;;;;;43.42;21.80;;;;;;;;;;780031;178;919381;-67
2021/01/10 11:44:54;;;;;;;44.87;21.50;;;;;;;;;;784030;178;667385;-68
2021/01/10 11:47:23;;;;;;;41.20;20.73;;;;;;;;;;776528;178;918443;-66
2021/01/10 11:49:45;;;;;;;35.23;19.57;;;;;;;;;;773036;178;918881;-67
2021/01/10 11:52:11;;;;;;;35.23;19.30;;;;;;;;;;785824;178;918730;-67
2021/01/10 11:54:37;;;;;;;36.70;20.40;;;;;;;;;;773796;178;918274;-67
2021/01/10 11:57:03;;;;;;;39.08;19.33;;;;;;;;;;774909;178;919243;-67
2021/01/10 11:59:29;;;;;;;42.55;22.85;;;;;;;;;;772411;179;918446;-67
2021/01/10 12:01:56;;;;;;;42.33;20.20;;;;;;;;;;771462;180;918983;-67
2021/01/10 12:04:22;;;;;;;35.63;21.10;;;;;;;;;;776216;178;919085;-67
2021/01/10 12:06:48;;;;;;;42.17;20.47;;;;;;;;;;771676;178;920584;-67
2021/01/10 12:09:15;;;;;;;31.45;17.85;;;;;;;;;;778459;179;917972;-67
2021/01/10 12:11:40;;;;;;;31.40;17.33;;;;;;;;;;774496;178;947163;-67
2021/01/10 12:14:06;;;;;;;41.70;22.00;;;;;;;;;;772981;179;921838;-69
2021/01/10 12:16:32;;;;;;;37.07;19.30;;;;;;;;;;778404;178;917937;-69
2021/01/10 12:18:58;;;;;;;39.83;20.83;;;;;;;;;;774075;177;934606;-67
2021/01/10 12:21:24;;;;;;;34.37;18.73;;;;;;;;;;768529;179;918933;-68
2021/01/10 12:23:50;;;;;;;32.50;19.12;;;;;;;;;;775470;178;916024;-69
2021/01/10 12:26:16;;;;;;;31.20;16.77;;;;;;;;;;765837;180;1261039;-68
2021/01/10 12:28:42;;;;;;;36.30;19.20;;;;;;;;;;777628;178;917466;-68
2021/01/10 12:31:08;;;;;;;36.10;19.10;;;;;;;;;;772717;178;919369;-67
2021/01/10 12:33:35;;;;;;;34.25;19.45;;;;;;;;;;782789;178;918824;-68
2021/01/10 12:36:02;;;;;;;35.33;19.07;;;;;;;;;;783182;176;884780;-69
2021/01/10 12:38:28;;;;;;;39.73;21.53;;;;;;;;;;763919;178;918866;-68
2021/01/10 12:40:54;;;;;;;40.53;20.73;;;;;;;;;;773158;176;919052;-68
2021/01/10 12:43:20;;;;;;;33.80;18.67;;;;;;;;;;779414;178;625411;-68
2021/01/10 12:45:45;;;;;;;37.50;19.20;;;;;;;;;;775646;178;919278;-67
2021/01/10 12:48:11;;;;;;;36.20;21.07;;;;;;;;;;771661;178;918340;-68
2021/01/10 12:50:38;;;;;;;36.47;20.20;;;;;;;;;;768461;181;919292;-68
2021/01/10 12:53:03;;;;;;;37.60;19.50;;;;;;;;;;774540;178;918322;-68
2021/01/10 12:55:29;;;;;;;46.07;22.20;;;;;;;;;;778767;178;918827;-68
2021/01/10 12:57:55;;;;;;;41.33;23.53;;;;;;;;;;780418;178;917771;-67
2021/01/10 13:00:21;;;;;;;38.00;20.40;;;;;;;;;;773951;178;921658;-68
2021/01/10 13:02:48;;;;;;;38.00;21.60;;;;;;;;;;774728;178;917083;-68
2021/01/10 13:05:13;;;;;;;42.33;25.00;;;;;;;;;;780448;178;918413;-68
2021/01/10 13:07:39;;;;;;;43.60;24.80;;;;;;;;;;773941;176;926863;-68
2021/01/10 13:10:06;;;;;;;43.37;22.60;;;;;;;;;;773749;178;918886;-68
2021/01/10 13:12:32;;;;;;;45.10;25.15;;;;;;;;;;777788;178;914885;-68
2021/01/10 13:14:58;;;;;;;46.10;24.20;;;;;;;;;;764567;181;915527;-69
2021/01/10 13:17:24;;;;;;;48.40;25.87;;;;;;;;;;774695;177;920304;-68
2021/01/10 13:19:50;;;;;;;41.83;22.67;;;;;;;;;;772119;179;918978;-68
2021/01/10 13:22:16;;;;;;;41.13;22.60;;;;;;;;;;778319;179;919167;-69
2021/01/10 13:24:42;;;;;;;48.37;25.47;;;;;;;;;;773582;178;1013508;-69
2021/01/10 13:27:08;;;;;;;46.87;24.90;;;;;;;;;;776109;178;926938;-69
2021/01/10 13:29:34;;;;;;;45.67;25.63;;;;;;;;;;776475;179;917989;-69
2021/01/10 13:32:00;;;;;;;47.63;25.47;;;;;;;;;;773400;178;1124756;-68
2021/01/10 13:34:25;;;;;;;46.90;24.42;;;;;;;;;;759522;178;3115453;-69
2021/01/10 13:36:51;;;;;;;54.17;23.90;;;;;;;;;;781749;179;951372;-69
2021/01/10 13:39:17;;;;;;;46.07;24.33;;;;;;;;;;771697;178;1029751;-69
2021/01/10 13:41:43;;;;;;;48.00;24.85;;;;;;;;;;772893;179;918505;-68
2021/01/10 13:44:09;;;;;;;50.67;25.30;;;;;;;;;;770297;178;918446;-68
2021/01/10 13:46:36;;;;;;;39.30;24.80;;;;;;;;;;783382;177;919261;-69
2021/01/10 13:49:01;;;;;;;46.03;22.73;;;;;;;;;;775179;178;919293;-69
2021/01/10 13:51:28;;;;;;;48.20;26.20;;;;;;;;;;775896;178;919674;-69
2021/01/10 13:53:53;;;;;;;43.20;22.50;;;;;;;;;;783535;178;919456;-69
2021/01/10 13:56:18;;;;;;;39.47;23.53;;;;;;;;;;775842;178;918797;-68
2021/01/10 13:58:44;;;;;;;53.23;25.00;;;;;;;;;;778792;179;919432;-69